Time;durP1;ratioP1;P1;durP2;ratioP2;P2;SDS_P1;SDS_P2;PMS_P1;PMS_P2;Temp;Humidity;BMP_temperature;BMP_pressure;BME280_temperature;BME280_humidity;BME280_pressure;Samples;Min_cycle;Max_cycle;Signal;HPM_P1;HPM_P2
2023/05/16 00:35:02;;;;;;;0.77;0.60;;;18.00;96.70;;;;;;4935467;28;20186;-71
2023/05/16 00:37:31;;;;;;;2.38;1.05;;;18.10;96.70;;;;;;4938362;28;20932;-70
2023/05/16 00:40:00;;;;;;;2.47;0.82;;;18.20;96.70;;;;;;4940863;29;20695;-70
2023/05/16 00:42:28;;;;;;;1.60;0.50;;;18.20;96.70;;;;;;4936037;29;20421;-71
2023/05/16 01:23:16;;;;;;;3.53;0.50;;;17.80;96.70;;;;;;4940442;29;20055;-70
2023/05/16 01:25:57;;;;;;;1.52;0.65;;;17.80;96.70;;;;;;4941387;29;20043;-70
2023/05/16 01:28:28;;;;;;;0.90;0.40;;;17.60;96.70;;;;;;4941728;29;20079;-70
2023/05/16 01:40:10;;;;;;;0.40;0.20;;;17.60;96.70;;;;;;4934286;28;20062;-71
2023/05/16 01:42:42;;;;;;;0.63;0.32;;;17.50;96.70;;;;;;4958261;28;20193;-71
2023/05/16 01:45:25;;;;;;;1.50;0.40;;;17.50;96.70;;;;;;4946022;29;20057;-70
2023/05/16 01:48:00;;;;;;;0.45;0.30;;;17.40;96.70;;;;;;4945936;29;20776;-71
2023/05/16 02:41:03;;;;;;;0.77;0.47;;;17.80;96.70;;;;;;4951587;28;20117;-71
2023/05/16 02:43:31;;;;;;;0.73;0.52;;;17.70;96.70;;;;;;4957467;28;20126;-71
2023/05/16 02:45:59;;;;;;;0.82;0.40;;;17.70;96.70;;;;;;4946321;28;20468;-71
2023/05/16 02:48:27;;;;;;;0.68;0.40;;;17.60;96.70;;;;;;4965231;28;20045;-71
2023/05/16 02:50:55;;;;;;;1.48;0.50;;;17.60;96.70;;;;;;4966040;28;20251;-71
2023/05/16 02:53:23;;;;;;;0.45;0.30;;;17.40;96.70;;;;;;4966612;28;20042;-71
2023/05/16 02:55:51;;;;;;;0.57;0.35;;;17.20;96.70;;;;;;4966360;28;20138;-70
2023/05/16 03:31:15;;;;;;;2.70;0.52;;;17.60;96.70;;;;;;4968099;28;20093;-70
2023/05/16 03:33:43;;;;;;;2.33;0.50;;;17.50;96.70;;;;;;4942098;28;20102;-70
2023/05/16 03:36:18;;;;;;;1.10;0.43;;;17.40;96.70;;;;;;4965273;28;20043;-70
2023/05/16 03:55:42;;;;;;;0.55;0.25;;;17.00;96.70;;;;;;4937452;28;20257;-70
2023/05/16 03:58:15;;;;;;;0.52;0.20;;;17.00;96.70;;;;;;4961787;28;20039;-70
2023/05/16 04:00:45;;;;;;;0.60;0.20;;;17.10;96.70;;;;;;4964148;28;20496;-70
2023/05/16 04:03:14;;;;;;;0.28;0.20;;;17.00;96.70;;;;;;4964237;28;20055;-70
2023/05/16 04:47:55;;;;;;;1.23;0.20;;;16.70;96.70;;;;;;4962537;28;20151;-71
2023/05/16 04:50:24;;;;;;;0.30;0.30;;;16.70;96.70;;;;;;4963777;28;20396;-71
2023/05/16 04:52:52;;;;;;;0.70;0.20;;;16.70;96.70;;;;;;4962110;28;20050;-71
2023/05/16 04:55:23;;;;;;;2.00;0.30;;;16.60;96.70;;;;;;4961341;28;20511;-71
2023/05/16 04:57:51;;;;;;;4.28;0.40;;;16.60;96.70;;;;;;4963380;28;20074;-72
2023/05/16 05:00:20;;;;;;;4.00;0.10;;;16.60;96.70;;;;;;4955357;28;20043;-71
2023/05/16 05:02:48;;;;;;;1.45;0.40;;;16.60;96.70;;;;;;4962301;28;20050;-71
2023/05/16 05:05:18;;;;;;;1.45;0.20;;;16.50;96.70;;;;;;4962365;28;20120;-71
2023/05/16 05:07:47;;;;;;;3.15;0.30;;;16.50;96.70;;;;;;4947251;28;20053;-71
2023/05/16 05:10:15;;;;;;;1.52;0.20;;;16.50;96.70;;;;;;4944803;28;20432;-71
2023/05/16 05:12:43;;;;;;;0.50;0.20;;;16.50;96.70;;;;;;4962756;28;20042;-71
2023/05/16 05:15:12;;;;;;;0.00;0.00;;;16.60;96.70;;;;;;4963020;28;20035;-71
2023/05/16 05:17:40;;;;;;;0.65;0.00;;;16.60;96.70;;;;;;4961885;28;20049;-71
2023/05/16 05:20:10;;;;;;;0.00;0.00;;;16.60;96.70;;;;;;4964046;28;20043;-71
2023/05/16 05:22:40;;;;;;;0.80;0.10;;;16.60;96.70;;;;;;4954881;28;20042;-71
2023/05/16 05:25:09;;;;;;;0.10;0.05;;;16.60;96.70;;;;;;4941945;28;20071;-70
2023/05/16 05:27:37;;;;;;;0.52;0.20;;;16.70;96.70;;;;;;4962254;28;20050;-72
2023/05/16 05:30:06;;;;;;;0.08;0.00;;;16.70;96.70;;;;;;4962025;28;20035;-72
2023/05/16 05:32:34;;;;;;;0.57;0.00;;;16.80;96.70;;;;;;4961877;28;20043;-71
2023/05/16 05:35:03;;;;;;;1.55;0.10;;;16.80;96.70;;;;;;4929182;28;20042;-72
2023/05/16 05:37:31;;;;;;;0.45;0.08;;;16.90;96.70;;;;;;4962275;28;20097;-71
2023/05/16 05:40:02;;;;;;;0.03;0.00;;;16.90;96.70;;;;;;4965641;28;20039;-72
2023/05/16 05:42:30;;;;;;;2.70;0.17;;;17.00;96.70;;;;;;4954240;28;20055;-72
2023/05/16 05:44:58;;;;;;;0.95;0.10;;;17.00;96.70;;;;;;4960216;28;20066;-72
2023/05/16 05:47:26;;;;;;;0.40;0.30;;;17.00;96.70;;;;;;4962605;28;20130;-72
2023/05/16 05:49:54;;;;;;;0.10;0.10;;;17.10;96.70;;;;;;4967100;28;20093;-71
2023/05/16 05:52:23;;;;;;;2.08;0.10;;;17.10;96.70;;;;;;4950613;28;20146;-72
2023/05/16 05:54:51;;;;;;;0.77;0.10;;;17.20;96.70;;;;;;4961677;28;20047;-72
2023/05/16 05:57:20;;;;;;;0.57;0.10;;;17.20;96.70;;;;;;4962204;28;20058;-72
2023/05/16 05:59:49;;;;;;;1.05;0.00;;;17.20;96.70;;;;;;4928415;28;20059;-72
2023/05/16 06:02:17;;;;;;;0.65;0.10;;;17.30;96.70;;;;;;4947691;28;20049;-72
2023/05/16 06:04:45;;;;;;;1.13;0.00;;;17.30;96.70;;;;;;4945069;28;20043;-72
2023/05/16 06:07:14;;;;;;;0.30;0.00;;;17.30;96.70;;;;;;4948778;28;20039;-72
2023/05/16 06:09:43;;;;;;;1.38;0.20;;;17.30;96.70;;;;;;4959866;28;20053;-73
2023/05/16 06:12:11;;;;;;;2.00;0.10;;;17.30;96.70;;;;;;4961156;28;20043;-72
2023/05/16 06:14:40;;;;;;;1.17;0.45;;;17.40;96.70;;;;;;4961713;28;20047;-72
2023/05/16 06:17:09;;;;;;;1.98;0.73;;;17.50;96.70;;;;;;4956240;28;20154;-72
2023/05/16 06:19:37;;;;;;;2.25;0.35;;;17.60;96.70;;;;;;4961748;28;20104;-72
2023/05/16 06:22:05;;;;;;;1.05;0.20;;;17.70;96.70;;;;;;4957302;28;20051;-72
2023/05/16 06:24:34;;;;;;;0.73;0.05;;;17.80;96.70;;;;;;4961598;28;20126;-73
2023/05/16 06:27:02;;;;;;;0.20;0.10;;;17.80;96.70;;;;;;4963931;28;20553;-73
2023/05/16 06:29:30;;;;;;;0.00;0.00;;;17.80;96.70;;;;;;4939637;28;20038;-74
2023/05/16 06:32:00;;;;;;;0.00;0.00;;;17.90;96.70;;;;;;4970256;28;20046;-73
2023/05/16 06:34:28;;;;;;;0.85;0.10;;;17.90;96.70;;;;;;4968447;28;20463;-73
2023/05/16 06:36:56;;;;;;;2.47;0.10;;;17.90;96.70;;;;;;4966570;28;20397;-73
2023/05/16 06:39:24;;;;;;;2.10;0.00;;;17.90;96.70;;;;;;4974177;28;20043;-72
2023/05/16 06:41:53;;;;;;;0.68;0.10;;;17.90;96.70;;;;;;4966965;28;20096;-72
2023/05/16 06:44:23;;;;;;;0.47;0.05;;;17.90;96.70;;;;;;4964850;28;20046;-74
2023/05/16 06:46:51;;;;;;;0.20;0.00;;;18.00;96.70;;;;;;4969750;28;20766;-74
2023/05/16 06:49:21;;;;;;;0.47;0.05;;;18.00;96.70;;;;;;4943101;28;20054;-72
2023/05/16 06:51:49;;;;;;;0.35;0.10;;;18.00;96.70;;;;;;4958273;28;20115;-74
2023/05/16 06:54:17;;;;;;;0.43;0.00;;;18.10;96.70;;;;;;4973974;28;20050;-73
2023/05/16 06:56:46;;;;;;;0.00;0.00;;;18.20;96.70;;;;;;4966363;28;20087;-74
2023/05/16 06:59:14;;;;;;;0.10;0.00;;;18.20;96.70;;;;;;4948441;28;20075;-73
2023/05/16 07:01:43;;;;;;;1.02;0.00;;;18.30;96.70;;;;;;4951892;28;20038;-73
2023/05/16 07:04:11;;;;;;;0.35;0.10;;;18.40;96.70;;;;;;4966622;28;20157;-71
2023/05/16 07:06:41;;;;;;;0.20;0.00;;;18.40;96.70;;;;;;4966293;28;20062;-73
2023/05/16 07:09:10;;;;;;;0.00;0.00;;;18.50;96.70;;;;;;4963681;28;20117;-72
2023/05/16 07:11:38;;;;;;;0.25;0.10;;;18.40;96.70;;;;;;4966432;28;20050;-72
2023/05/16 07:14:06;;;;;;;1.38;0.00;;;18.40;96.70;;;;;;4963450;28;20050;-71
2023/05/16 07:16:35;;;;;;;0.85;0.10;;;18.30;96.70;;;;;;4968095;28;20042;-72
2023/05/16 07:19:03;;;;;;;0.32;0.00;;;18.20;96.70;;;;;;4948163;28;20047;-72
2023/05/16 07:21:31;;;;;;;0.65;0.10;;;18.10;96.70;;;;;;4965684;28;20038;-71
2023/05/16 07:24:01;;;;;;;0.30;0.00;;;18.00;96.70;;;;;;4965945;28;20053;-73
2023/05/16 07:26:29;;;;;;;0.50;0.10;;;17.90;96.70;;;;;;4945642;28;20042;-72
2023/05/16 07:28:57;;;;;;;0.80;0.10;;;17.80;96.70;;;;;;4964732;28;20628;-73
2023/05/16 07:31:26;;;;;;;3.72;0.10;;;17.70;96.70;;;;;;4954082;28;20050;-73
2023/05/16 07:33:54;;;;;;;1.15;0.10;;;17.50;96.70;;;;;;4957572;28;20058;-72
2023/05/16 07:36:23;;;;;;;0.43;0.00;;;17.30;96.70;;;;;;4974632;28;20523;-72
2023/05/16 07:38:51;;;;;;;0.05;0.00;;;17.20;96.70;;;;;;4965570;28;20044;-74
2023/05/16 07:41:20;;;;;;;1.13;0.00;;;17.20;96.70;;;;;;4965413;28;20047;-73
2023/05/16 07:43:49;;;;;;;1.80;0.10;;;17.20;96.70;;;;;;4964922;28;20097;-74
2023/05/16 07:46:17;;;;;;;1.05;0.00;;;17.20;96.70;;;;;;4949777;28;20050;-73
2023/05/16 07:48:46;;;;;;;1.77;0.00;;;17.30;96.70;;;;;;4965805;28;20047;-71
2023/05/16 07:51:14;;;;;;;0.20;0.00;;;17.30;96.70;;;;;;4947456;28;20046;-71
2023/05/16 07:53:42;;;;;;;0.25;0.03;;;17.20;96.70;;;;;;4950083;28;20098;-74
2023/05/16 07:56:11;;;;;;;1.65;0.10;;;17.10;96.70;;;;;;4948482;28;20797;-73
2023/05/16 07:58:41;;;;;;;1.02;0.00;;;17.00;96.70;;;;;;4951528;28;20053;-73
2023/05/16 08:01:10;;;;;;;0.00;0.00;;;17.00;96.70;;;;;;4969486;28;20043;-73
2023/05/16 08:03:39;;;;;;;0.05;0.00;;;17.00;96.70;;;;;;4946728;28;20043;-73
2023/05/16 08:06:07;;;;;;;0.30;0.00;;;17.00;96.70;;;;;;4961097;28;20051;-74
2023/05/16 08:08:36;;;;;;;0.57;0.00;;;17.10;96.70;;;;;;4940294;28;20043;-74
2023/05/16 08:11:05;;;;;;;0.10;0.03;;;17.10;96.70;;;;;;4948650;28;20050;-74
2023/05/16 08:13:33;;;;;;;0.30;0.00;;;17.20;96.70;;;;;;4964853;28;20571;-74
2023/05/16 08:16:03;;;;;;;1.08;0.32;;;17.30;96.70;;;;;;4955865;28;20054;-74
2023/05/16 08:18:31;;;;;;;0.32;0.00;;;17.40;96.70;;;;;;4972797;28;20048;-73
2023/05/16 08:21:01;;;;;;;0.60;0.10;;;17.40;96.70;;;;;;4956942;28;20046;-73
2023/05/16 08:23:29;;;;;;;0.22;0.10;;;17.50;96.70;;;;;;4932588;28;20567;-73
2023/05/16 08:25:57;;;;;;;0.25;0.00;;;17.50;96.70;;;;;;4972709;28;20153;-71
2023/05/16 08:28:26;;;;;;;1.05;0.20;;;17.60;96.70;;;;;;4963799;28;20042;-72
2023/05/16 08:30:55;;;;;;;1.10;0.00;;;17.50;96.70;;;;;;4964534;28;20673;-72
2023/05/16 08:33:25;;;;;;;0.93;0.00;;;17.40;96.70;;;;;;4965100;28;20042;-72
2023/05/16 08:35:54;;;;;;;0.05;0.00;;;17.30;96.70;;;;;;4952659;28;20469;-72
2023/05/16 08:38:22;;;;;;;1.33;0.10;;;17.30;96.70;;;;;;4970566;28;20039;-72
2023/05/16 08:40:50;;;;;;;0.85;0.10;;;17.20;96.70;;;;;;4945921;28;20047;-72
2023/05/16 08:43:19;;;;;;;1.52;0.32;;;17.30;96.70;;;;;;4940352;28;20054;-71
2023/05/16 08:45:47;;;;;;;0.77;0.17;;;17.20;96.70;;;;;;4972364;28;20303;-72
2023/05/16 08:48:19;;;;;;;0.43;0.10;;;17.20;96.70;;;;;;4964961;28;20830;-72
2023/05/16 08:50:50;;;;;;;1.65;0.00;;;17.10;96.70;;;;;;4950300;28;20451;-73
2023/05/16 08:53:24;;;;;;;0.28;0.00;;;17.10;96.70;;;;;;4955979;28;20084;-71
2023/05/16 08:55:55;;;;;;;0.00;0.00;;;17.10;96.70;;;;;;4963513;28;20488;-72
2023/05/16 08:58:24;;;;;;;0.32;0.00;;;17.20;96.70;;;;;;4954932;28;21153;-71
2023/05/16 09:00:52;;;;;;;0.00;0.00;;;17.20;96.70;;;;;;4935547;28;20042;-71
2023/05/16 09:03:23;;;;;;;0.00;0.00;;;17.20;96.70;;;;;;4972579;28;20047;-71
2023/05/16 09:05:52;;;;;;;0.38;0.00;;;17.20;96.70;;;;;;4975266;28;20048;-71
2023/05/16 09:08:21;;;;;;;0.47;0.10;;;17.40;96.70;;;;;;4979814;28;20153;-71
2023/05/16 09:10:49;;;;;;;0.10;0.00;;;17.40;96.70;;;;;;4953492;28;20543;-71
2023/05/16 09:13:17;;;;;;;0.30;0.20;;;17.50;96.70;;;;;;4965437;28;20053;-71
2023/05/16 09:16:06;;;;;;;0.43;0.00;;;17.50;96.70;;;;;;4931214;28;20085;-73
2023/05/16 09:18:34;;;;;;;0.35;0.00;;;17.50;96.70;;;;;;4967129;28;20102;-72
2023/05/16 09:21:06;;;;;;;0.00;0.00;;;17.70;96.70;;;;;;4955006;28;20054;-72
2023/05/16 09:23:35;;;;;;;0.00;0.00;;;17.70;96.70;;;;;;4963792;28;20062;-73
2023/05/16 09:26:06;;;;;;;0.30;0.00;;;17.80;96.70;;;;;;4947363;28;20054;-72
2023/05/16 09:28:38;;;;;;;0.30;0.08;;;17.90;96.70;;;;;;4962853;28;20054;-71
2023/05/16 09:31:20;;;;;;;0.60;0.10;;;17.90;96.70;;;;;;4947773;28;20038;-71
2023/05/16 09:33:49;;;;;;;0.30;0.05;;;18.00;96.70;;;;;;4966289;28;20042;-72
2023/05/16 09:36:19;;;;;;;0.22;0.10;;;18.10;96.70;;;;;;4970460;28;20042;-72
2023/05/16 09:38:49;;;;;;;0.00;0.00;;;18.30;96.70;;;;;;4973879;28;20046;-72
2023/05/16 09:41:17;;;;;;;1.48;0.08;;;18.50;96.70;;;;;;4980345;28;20125;-71
2023/05/16 09:43:46;;;;;;;0.00;0.00;;;18.60;96.70;;;;;;4974317;28;20047;-72
2023/05/16 09:46:14;;;;;;;0.47;0.00;;;18.80;96.70;;;;;;4981910;28;20046;-72
2023/05/16 09:48:45;;;;;;;0.52;0.08;;;18.90;96.70;;;;;;4973389;28;20130;-72
2023/05/16 09:51:14;;;;;;;0.47;0.08;;;19.10;96.70;;;;;;4972804;28;20051;-73
2023/05/16 09:53:43;;;;;;;0.57;0.20;;;19.30;96.70;;;;;;4978493;28;20038;-72
2023/05/16 09:56:13;;;;;;;0.00;0.00;;;19.20;96.70;;;;;;4943497;28;20060;-73
2023/05/16 09:58:43;;;;;;;2.35;0.43;;;19.20;96.70;;;;;;4940162;29;20815;-72
2023/05/16 10:01:11;;;;;;;1.65;0.13;;;19.20;96.70;;;;;;4943307;28;20055;-72
2023/05/16 10:03:41;;;;;;;3.25;0.35;;;19.30;96.70;;;;;;4945827;28;20094;-72
2023/05/16 10:06:11;;;;;;;0.85;0.30;;;19.30;96.70;;;;;;4926434;29;20066;-72
2023/05/16 10:08:41;;;;;;;2.00;0.20;;;19.30;96.70;;;;;;4946508;29;20626;-72
2023/05/16 10:11:13;;;;;;;0.40;0.10;;;19.20;96.70;;;;;;4944179;29;20058;-71
2023/05/16 10:13:41;;;;;;;0.50;0.20;;;19.00;96.70;;;;;;4947540;29;20130;-72
2023/05/16 10:16:11;;;;;;;1.05;0.20;;;19.00;96.70;;;;;;4943237;29;20572;-72
2023/05/16 10:18:41;;;;;;;1.55;0.30;;;19.00;96.70;;;;;;4952759;28;20047;-72
2023/05/16 10:21:14;;;;;;;1.05;0.10;;;19.00;96.70;;;;;;4946396;29;20188;-72
2023/05/16 10:23:46;;;;;;;0.98;0.10;;;19.10;96.70;;;;;;4947178;29;20055;-72
2023/05/16 10:26:17;;;;;;;0.52;0.30;;;18.90;96.70;;;;;;4940645;28;20071;-72
2023/05/16 10:28:45;;;;;;;0.60;0.15;;;18.90;96.70;;;;;;4942997;29;20075;-72
2023/05/16 10:31:15;;;;;;;2.45;0.20;;;18.90;96.70;;;;;;4941425;29;20040;-72
2023/05/16 10:33:44;;;;;;;0.10;0.05;;;18.90;96.70;;;;;;4947120;28;20035;-72
2023/05/16 10:36:15;;;;;;;0.88;0.10;;;18.90;96.70;;;;;;4947422;29;20521;-72
2023/05/16 10:38:45;;;;;;;1.17;0.25;;;19.00;96.70;;;;;;4940554;29;20043;-71
2023/05/16 10:41:15;;;;;;;0.22;0.10;;;19.20;96.70;;;;;;4945926;29;20051;-71
2023/05/16 10:43:54;;;;;;;0.25;0.10;;;19.60;96.70;;;;;;4939302;29;20054;-71
2023/05/16 10:46:23;;;;;;;0.55;0.20;;;20.00;96.70;;;;;;4947370;29;20066;-72
2023/05/16 10:48:52;;;;;;;0.47;0.20;;;20.30;96.70;;;;;;4941817;29;20418;-72
2023/05/16 10:51:35;;;;;;;1.50;0.10;;;20.40;96.70;;;;;;4943458;29;20077;-73
2023/05/16 10:54:09;;;;;;;4.80;0.30;;;20.30;96.70;;;;;;4931400;29;20135;-72
2023/05/16 10:56:39;;;;;;;0.40;0.17;;;20.20;96.70;;;;;;4952617;28;20082;-72
2023/05/16 10:59:23;;;;;;;2.72;0.20;;;20.20;96.70;;;;;;4959972;28;20689;-72
2023/05/16 11:01:55;;;;;;;0.10;0.10;;;20.00;96.70;;;;;;4948430;28;20045;-71
2023/05/16 11:04:44;;;;;;;1.05;0.00;;;19.80;96.70;;;;;;4964537;28;20505;-72
2023/05/16 11:07:12;;;;;;;1.85;0.10;;;19.80;96.70;;;;;;4957059;28;20070;-73
2023/05/16 11:09:44;;;;;;;0.20;0.10;;;19.70;96.70;;;;;;4953844;28;20044;-71
2023/05/16 11:12:14;;;;;;;3.10;0.10;;;19.60;96.70;;;;;;4938371;28;20069;-72
2023/05/16 11:14:44;;;;;;;0.30;0.10;;;19.50;96.70;;;;;;4946939;28;20047;-71
2023/05/16 11:17:13;;;;;;;4.28;0.10;;;19.40;96.70;;;;;;4959440;28;20073;-73
2023/05/16 11:19:45;;;;;;;0.57;0.10;;;19.30;96.70;;;;;;4961146;28;20043;-71
2023/05/16 11:22:24;;;;;;;2.78;0.25;;;19.20;96.70;;;;;;4955297;28;20543;-72
2023/05/16 11:24:58;;;;;;;0.50;0.15;;;19.30;96.70;;;;;;4963906;28;20050;-72
2023/05/16 11:27:29;;;;;;;0.03;0.03;;;19.20;96.70;;;;;;4955400;28;20047;-72
2023/05/16 11:30:12;;;;;;;1.25;0.10;;;19.10;96.70;;;;;;4956906;28;20055;-72
2023/05/16 11:32:41;;;;;;;1.75;0.20;;;19.00;96.70;;;;;;4956470;28;20646;-72
2023/05/16 11:35:11;;;;;;;0.17;0.10;;;18.90;96.70;;;;;;4961214;28;20039;-72
2023/05/16 11:37:42;;;;;;;0.75;0.10;;;18.90;96.70;;;;;;4950168;28;20079;-72
2023/05/16 11:40:12;;;;;;;1.08;0.08;;;18.80;96.70;;;;;;4954886;28;20508;-72
2023/05/16 11:42:43;;;;;;;2.65;0.20;;;18.70;96.70;;;;;;4963601;28;20899;-72
2023/05/16 11:45:14;;;;;;;1.13;0.10;;;18.60;96.70;;;;;;4953996;28;20062;-72
2023/05/16 11:47:44;;;;;;;0.95;0.30;;;18.60;96.70;;;;;;4959391;28;20069;-72
2023/05/16 11:50:13;;;;;;;0.15;0.10;;;18.40;96.70;;;;;;4950925;28;20043;-72
2023/05/16 11:52:45;;;;;;;0.75;0.00;;;18.40;96.70;;;;;;4962609;28;20210;-71
2023/05/16 11:55:17;;;;;;;0.73;0.00;;;18.30;96.70;;;;;;4953452;28;20039;-72
2023/05/16 11:58:01;;;;;;;0.40;0.00;;;18.40;96.70;;;;;;4944659;28;20066;-72
2023/05/16 12:00:29;;;;;;;0.10;0.00;;;18.40;96.70;;;;;;4944667;28;20051;-72
2023/05/16 12:03:03;;;;;;;0.20;0.10;;;18.30;96.70;;;;;;4961866;28;20054;-71
2023/05/16 12:05:32;;;;;;;0.55;0.10;;;18.40;96.70;;;;;;4962472;28;20074;-73
2023/05/16 12:08:03;;;;;;;1.55;0.00;;;18.40;96.70;;;;;;4960933;28;20047;-73
2023/05/16 12:10:35;;;;;;;0.93;0.00;;;18.30;96.70;;;;;;4956920;28;20117;-73
2023/05/16 12:13:05;;;;;;;0.63;0.00;;;18.20;96.70;;;;;;4956338;28;20290;-73
2023/05/16 12:15:33;;;;;;;0.73;0.00;;;18.20;96.70;;;;;;4962928;28;20608;-73
2023/05/16 12:18:02;;;;;;;0.52;0.08;;;18.20;96.70;;;;;;4939620;28;20571;-73
2023/05/16 12:20:30;;;;;;;0.00;0.00;;;18.20;96.70;;;;;;4955632;28;20138;-73
2023/05/16 12:22:58;;;;;;;1.40;0.10;;;18.20;96.70;;;;;;4929602;29;20055;-73
2023/05/16 12:25:28;;;;;;;0.80;0.00;;;18.20;96.70;;;;;;4959340;28;20137;-73
2023/05/16 12:27:58;;;;;;;0.22;0.00;;;18.20;96.70;;;;;;4961763;28;20142;-74
2023/05/16 12:30:30;;;;;;;0.38;0.00;;;18.20;96.70;;;;;;4973267;28;20059;-72
2023/05/16 12:32:59;;;;;;;0.10;0.00;;;18.20;96.70;;;;;;4950867;28;20554;-72
2023/05/16 12:35:32;;;;;;;0.75;0.00;;;18.20;96.70;;;;;;4950690;28;20142;-73
2023/05/16 12:38:02;;;;;;;0.00;0.00;;;18.30;96.70;;;;;;4976305;28;20090;-73
2023/05/16 12:40:31;;;;;;;0.10;0.00;;;18.30;96.70;;;;;;4934291;28;20046;-73
2023/05/16 12:42:59;;;;;;;2.03;0.00;;;18.30;96.70;;;;;;4945925;28;20537;-73
2023/05/16 12:45:29;;;;;;;1.88;0.00;;;18.30;96.70;;;;;;4943193;28;20450;-73
2023/05/16 12:48:07;;;;;;;0.30;0.00;;;18.40;96.70;;;;;;4951108;28;20054;-73
2023/05/16 12:50:38;;;;;;;0.10;0.00;;;18.30;96.70;;;;;;4958492;28;20047;-73
2023/05/16 12:53:11;;;;;;;0.00;0.00;;;18.40;96.70;;;;;;4964248;28;20416;-73
2023/05/16 12:55:40;;;;;;;0.93;0.10;;;18.50;96.70;;;;;;4952207;28;20057;-73
2023/05/16 12:58:08;;;;;;;0.03;0.00;;;18.50;96.70;;;;;;4978496;28;20042;-73
2023/05/16 13:00:38;;;;;;;1.45;0.00;;;18.50;96.70;;;;;;4956727;28;20419;-72
2023/05/16 13:03:06;;;;;;;0.20;0.00;;;18.60;96.70;;;;;;4964638;28;20114;-73
2023/05/16 13:05:35;;;;;;;0.40;0.00;;;18.50;96.70;;;;;;4957876;28;21072;-73
2023/05/16 13:08:03;;;;;;;0.10;0.00;;;18.50;96.70;;;;;;4965097;28;20038;-73
2023/05/16 13:10:31;;;;;;;0.30;0.00;;;18.40;96.70;;;;;;4970920;28;20519;-73
2023/05/16 13:13:00;;;;;;;0.22;0.10;;;18.40;96.70;;;;;;4951179;28;20146;-72
2023/05/16 13:15:28;;;;;;;0.55;0.00;;;18.40;96.70;;;;;;4934845;28;20070;-73
2023/05/16 13:17:58;;;;;;;0.10;0.00;;;18.40;96.70;;;;;;4953708;28;20067;-73
2023/05/16 13:20:27;;;;;;;0.35;0.00;;;18.40;96.70;;;;;;4969787;28;20240;-72
2023/05/16 13:22:55;;;;;;;0.43;0.10;;;18.40;96.70;;;;;;4955236;28;20078;-73
2023/05/16 13:25:23;;;;;;;0.40;0.20;;;18.40;96.70;;;;;;4979011;28;20133;-73
2023/05/16 13:27:51;;;;;;;0.73;0.10;;;18.50;96.70;;;;;;4952279;28;20444;-73
2023/05/16 13:30:19;;;;;;;1.25;0.10;;;18.50;96.70;;;;;;4973610;28;20081;-73
2023/05/16 13:32:48;;;;;;;0.17;0.00;;;18.60;96.70;;;;;;4946103;28;20042;-73
2023/05/16 13:35:18;;;;;;;0.20;0.00;;;18.60;96.70;;;;;;4972107;28;20499;-72
2023/05/16 13:37:46;;;;;;;0.20;0.00;;;18.60;96.70;;;;;;4964533;28;20553;-73
2023/05/16 13:40:14;;;;;;;0.20;0.00;;;18.70;96.70;;;;;;4973416;28;20556;-73
2023/05/16 13:42:42;;;;;;;0.00;0.00;;;18.70;96.70;;;;;;4950655;28;20061;-73
2023/05/16 13:45:11;;;;;;;0.17;0.00;;;18.60;96.70;;;;;;4974984;28;20452;-73
2023/05/16 13:47:40;;;;;;;0.03;0.00;;;18.60;96.70;;;;;;4960504;28;20050;-72
2023/05/16 13:50:09;;;;;;;0.32;0.00;;;18.60;96.70;;;;;;4971819;28;20109;-73
2023/05/16 13:52:39;;;;;;;0.13;0.00;;;18.60;96.70;;;;;;4954948;28;20054;-73
2023/05/16 13:55:08;;;;;;;0.17;0.00;;;18.60;96.70;;;;;;4986354;28;20053;-73
2023/05/16 13:57:36;;;;;;;0.20;0.10;;;18.60;96.70;;;;;;4952658;28;20050;-73
2023/05/16 14:00:11;;;;;;;0.20;0.00;;;18.60;96.70;;;;;;4985526;28;20046;-72
2023/05/16 14:02:42;;;;;;;0.55;0.00;;;18.50;96.70;;;;;;4961663;28;20141;-73
2023/05/16 14:05:10;;;;;;;0.32;0.10;;;18.50;96.70;;;;;;4985005;28;20046;-73
2023/05/16 14:07:40;;;;;;;0.20;0.10;;;18.50;96.70;;;;;;4953557;28;20230;-73
2023/05/16 14:10:09;;;;;;;0.55;0.00;;;18.50;96.70;;;;;;4979958;28;20141;-73
2023/05/16 14:12:37;;;;;;;1.27;0.00;;;18.50;96.70;;;;;;4979714;28;20046;-73
2023/05/16 14:15:06;;;;;;;0.00;0.00;;;18.50;96.70;;;;;;4968620;28;20472;-73
2023/05/16 14:17:35;;;;;;;0.28;0.10;;;18.40;96.70;;;;;;4980063;28;20042;-73
2023/05/16 14:20:09;;;;;;;0.22;0.00;;;18.40;96.70;;;;;;4967594;28;20046;-72
2023/05/16 14:22:40;;;;;;;1.27;0.10;;;18.30;96.70;;;;;;4983550;28;20105;-72
2023/05/16 14:25:09;;;;;;;0.15;0.00;;;18.30;96.70;;;;;;4968732;28;20129;-73
2023/05/16 14:27:37;;;;;;;0.50;0.10;;;18.20;96.70;;;;;;4968645;28;20047;-73
2023/05/16 14:30:08;;;;;;;0.50;0.10;;;18.20;96.70;;;;;;4970697;28;20122;-73
2023/05/16 14:32:36;;;;;;;0.52;0.10;;;18.10;96.70;;;;;;4958328;28;20145;-73
2023/05/16 14:35:06;;;;;;;0.70;0.10;;;18.10;96.70;;;;;;4983096;28;20046;-72
2023/05/16 14:37:34;;;;;;;1.60;0.00;;;18.00;96.70;;;;;;4983220;28;20121;-72
2023/05/16 14:40:05;;;;;;;0.95;0.00;;;17.90;96.70;;;;;;4962925;28;20046;-72
2023/05/16 14:42:34;;;;;;;0.20;0.00;;;17.90;96.70;;;;;;4983787;28;20118;-73
2023/05/16 14:45:02;;;;;;;1.50;0.15;;;17.90;96.70;;;;;;4964699;28;20053;-73
2023/05/16 14:47:30;;;;;;;0.10;0.08;;;17.90;96.70;;;;;;4975765;28;20046;-72
2023/05/16 14:49:59;;;;;;;1.02;0.20;;;17.80;96.70;;;;;;4979256;28;20045;-72
2023/05/16 14:52:28;;;;;;;0.38;0.20;;;17.80;96.70;;;;;;4968654;28;20134;-72
2023/05/16 14:54:56;;;;;;;0.80;0.20;;;17.80;96.70;;;;;;4967764;28;20109;-73
2023/05/16 14:57:26;;;;;;;0.50;0.10;;;17.80;96.70;;;;;;4944604;28;20058;-73
2023/05/16 14:59:54;;;;;;;0.17;0.00;;;17.80;96.70;;;;;;4964575;28;20046;-73
2023/05/16 15:02:22;;;;;;;0.70;0.20;;;17.70;96.70;;;;;;4982463;28;20069;-73
2023/05/16 15:04:50;;;;;;;0.68;0.10;;;17.70;96.70;;;;;;4982353;28;20516;-73
2023/05/16 15:07:19;;;;;;;0.03;0.00;;;17.70;96.70;;;;;;4976025;28;20579;-73
2023/05/16 15:09:47;;;;;;;0.32;0.00;;;17.70;96.70;;;;;;4981877;28;20038;-73
2023/05/16 15:12:15;;;;;;;0.00;0.00;;;17.70;96.70;;;;;;4963799;28;20460;-73
2023/05/16 15:14:45;;;;;;;1.27;0.20;;;17.70;96.70;;;;;;4976146;28;20408;-72
2023/05/16 15:17:13;;;;;;;0.08;0.00;;;17.60;96.70;;;;;;4965363;28;20634;-72
2023/05/16 15:19:41;;;;;;;0.00;0.00;;;17.60;96.70;;;;;;4950728;28;20524;-72
2023/05/16 15:22:10;;;;;;;0.05;0.00;;;17.60;96.70;;;;;;4951438;28;20548;-73
2023/05/16 15:24:37;;;;;;;0.28;0.10;;;17.70;96.70;;;;;;4964045;28;20039;-73
2023/05/16 15:27:06;;;;;;;0.22;0.00;;;17.70;96.70;;;;;;4956408;28;20061;-73
2023/05/16 15:29:34;;;;;;;0.00;0.00;;;17.60;96.70;;;;;;4979568;28;20551;-73
2023/05/16 15:32:05;;;;;;;0.17;0.10;;;17.60;96.70;;;;;;4973970;28;20093;-73
2023/05/16 15:34:34;;;;;;;0.47;0.03;;;17.60;96.70;;;;;;4982336;28;20046;-72
2023/05/16 15:37:02;;;;;;;0.30;0.05;;;17.50;96.70;;;;;;4975930;28;20097;-73
2023/05/16 15:39:30;;;;;;;1.00;0.10;;;17.50;96.70;;;;;;4973958;28;20053;-72
2023/05/16 15:41:58;;;;;;;0.77;0.08;;;17.50;96.70;;;;;;4964600;28;20050;-72
2023/05/16 15:44:37;;;;;;;0.40;0.00;;;17.50;96.70;;;;;;4957558;28;20070;-73
2023/05/16 15:47:09;;;;;;;0.25;0.00;;;17.50;96.70;;;;;;4974165;28;20088;-72
2023/05/16 15:49:37;;;;;;;1.00;0.10;;;17.60;96.70;;;;;;4967564;28;20046;-73
2023/05/16 15:52:05;;;;;;;1.13;0.00;;;17.60;96.70;;;;;;4962484;28;20487;-73
2023/05/16 15:54:34;;;;;;;0.75;0.10;;;17.50;96.70;;;;;;4973672;28;20078;-72
2023/05/16 15:57:02;;;;;;;0.50;0.10;;;17.50;96.70;;;;;;4948719;28;20085;-72
2023/05/16 15:59:31;;;;;;;2.15;0.10;;;17.50;96.70;;;;;;4956357;28;20684;-73
2023/05/16 16:02:02;;;;;;;2.10;0.10;;;17.50;96.70;;;;;;4965420;28;20490;-73
2023/05/16 16:04:32;;;;;;;0.30;0.20;;;17.50;96.70;;;;;;4965844;28;20101;-73
2023/05/16 16:07:00;;;;;;;0.30;0.10;;;17.50;96.70;;;;;;4960677;28;20129;-73
2023/05/16 16:09:29;;;;;;;1.35;0.00;;;17.50;96.70;;;;;;4950419;28;20137;-73
2023/05/16 16:11:57;;;;;;;0.35;0.10;;;17.50;96.70;;;;;;4963024;28;20051;-73
2023/05/16 16:14:25;;;;;;;0.05;0.00;;;17.50;96.70;;;;;;4973122;28;20488;-73
2023/05/16 16:16:53;;;;;;;0.65;0.20;;;17.50;96.70;;;;;;4965039;28;20458;-72
2023/05/16 16:19:22;;;;;;;0.10;0.00;;;17.50;96.70;;;;;;4965997;28;20046;-73
2023/05/16 16:21:52;;;;;;;0.32;0.17;;;17.50;96.70;;;;;;4965252;28;20412;-72
2023/05/16 16:24:20;;;;;;;0.52;0.10;;;17.50;96.70;;;;;;4965130;28;20624;-72
2023/05/16 16:26:48;;;;;;;0.30;0.10;;;17.50;96.70;;;;;;4964552;28;20101;-72
2023/05/16 16:29:16;;;;;;;0.20;0.10;;;17.50;96.70;;;;;;4957127;28;20840;-72
2023/05/16 16:31:45;;;;;;;0.80;0.30;;;17.50;96.70;;;;;;4961749;28;20050;-73
2023/05/16 16:34:13;;;;;;;0.17;0.10;;;17.50;96.70;;;;;;4953176;28;20448;-72
2023/05/16 16:36:41;;;;;;;2.10;0.10;;;17.50;96.70;;;;;;4951750;28;20054;-72
2023/05/16 16:39:11;;;;;;;0.00;0.00;;;17.60;96.70;;;;;;4972186;28;20042;-73
2023/05/16 16:41:39;;;;;;;0.35;0.00;;;17.60;96.70;;;;;;4940511;28;20072;-72
2023/05/16 16:44:07;;;;;;;1.15;0.10;;;17.60;96.70;;;;;;4964568;28;20047;-73